createdAt,value
2022-09-06T00:01:52.464Z,20.10
2022-09-06T00:06:50.772Z,19.90
2022-09-06T00:11:50.411Z,19.80
2022-09-06T00:16:48.744Z,19.70
2022-09-06T00:21:46.978Z,19.70
2022-09-06T00:26:45.274Z,19.80
2022-09-06T00:31:45.002Z,19.80
2022-09-06T00:36:43.307Z,19.80
2022-09-06T00:41:41.604Z,19.80
2022-09-06T00:46:43.296Z,19.70
2022-09-06T00:51:43.732Z,19.60
2022-09-06T00:56:45.170Z,19.50
2022-09-06T01:01:43.971Z,19.50
2022-09-06T01:06:52.016Z,19.40
2022-09-06T01:12:01.262Z,19.40
2022-09-06T01:17:07.187Z,19.20
2022-09-06T01:22:21.352Z,19.20
2022-09-06T01:27:47.314Z,19.20
2022-09-06T01:32:54.618Z,19.20
2022-09-06T01:37:53.081Z,19.20
2022-09-06T01:42:54.409Z,19.20
2022-09-06T01:48:04.090Z,19.20
2022-09-06T01:53:12.107Z,19.10
2022-09-06T01:58:33.300Z,19.10
2022-09-06T02:03:38.040Z,19.10
2022-09-06T02:08:40.480Z,19.10
2022-09-06T02:13:45.945Z,18.90
2022-09-06T02:18:48.860Z,19.00
2022-09-06T02:23:48.679Z,18.90
2022-09-06T02:28:48.622Z,18.90
2022-09-06T02:33:48.490Z,18.90
2022-09-06T02:38:47.736Z,18.80
2022-09-06T02:43:46.368Z,18.80
2022-09-06T02:48:46.774Z,18.90
2022-09-06T02:53:45.222Z,18.90
2022-09-06T02:58:43.743Z,18.90
2022-09-06T03:03:42.040Z,18.90
2022-09-06T03:08:41.667Z,18.70
2022-09-06T03:13:39.969Z,18.70
2022-09-06T03:18:38.224Z,18.70
2022-09-06T03:23:38.920Z,18.50
2022-09-06T03:28:38.550Z,18.50
2022-09-06T03:33:36.823Z,18.40
2022-09-06T03:38:35.146Z,18.40
2022-09-06T03:43:33.989Z,18.40
2022-09-06T03:48:33.653Z,18.40
2022-09-06T03:53:31.968Z,18.40
2022-09-06T03:58:32.090Z,18.40
2022-09-06T04:03:30.361Z,18.20
2022-09-06T04:08:30.530Z,18.10
2022-09-06T04:13:30.812Z,18.10
2022-09-06T04:18:29.308Z,18.20
2022-09-06T04:23:30.023Z,18.10
2022-09-06T04:28:29.102Z,18.20
2022-09-06T04:33:28.785Z,18.10
2022-09-06T04:38:28.405Z,18.00
2022-09-06T04:43:28.148Z,17.80
2022-09-06T04:48:26.624Z,17.90
2022-09-06T04:53:25.028Z,17.90
2022-09-06T04:58:23.408Z,17.90
2022-09-06T05:03:23.188Z,17.90
2022-09-06T05:08:21.605Z,17.80
2022-09-06T05:13:19.866Z,17.80
2022-09-06T05:18:18.144Z,17.70
2022-09-06T05:23:17.817Z,17.70
2022-09-06T05:28:16.295Z,17.80
2022-09-06T05:33:19.803Z,17.80
2022-09-06T05:38:19.448Z,17.90
2022-09-06T05:43:18.876Z,17.90
2022-09-06T05:48:19.160Z,18.00
2022-09-06T05:53:17.425Z,18.10
2022-09-06T05:58:17.149Z,18.10
2022-09-06T06:03:15.392Z,18.00
2022-09-06T06:08:13.635Z,18.10
2022-09-06T06:13:11.934Z,18.00
2022-09-06T06:18:12.067Z,17.90
2022-09-06T06:23:10.437Z,17.90
2022-09-06T06:28:08.780Z,17.90
2022-09-06T06:33:07.134Z,17.90
2022-09-06T06:38:07.032Z,18.00
2022-09-06T06:43:05.293Z,18.10
2022-09-06T06:48:03.889Z,18.10
2022-09-06T06:53:02.209Z,18.20
2022-09-06T06:58:02.660Z,18.30
2022-09-06T07:03:00.937Z,18.40
2022-09-06T07:07:59.725Z,18.50
2022-09-06T07:12:57.990Z,18.50
2022-09-06T07:17:58.279Z,18.50
2022-09-06T07:28:24.643Z,18.80
2022-09-06T07:33:24.787Z,18.70
2022-09-06T07:38:22.991Z,18.80
2022-09-06T07:43:21.407Z,18.90
2022-09-06T07:48:19.709Z,18.90
2022-09-06T07:53:26.334Z,18.90
2022-09-06T07:58:30.194Z,19.00
2022-09-06T08:03:28.843Z,19.00
2022-09-06T08:13:49.593Z,19.10
2022-09-06T08:18:52.073Z,19.20
2022-09-06T08:23:53.780Z,19.30
2022-09-06T08:28:55.869Z,19.40
2022-09-06T08:33:54.894Z,19.50
2022-09-06T08:38:54.742Z,19.50
2022-09-06T08:49:13.952Z,19.70
2022-09-06T08:54:22.605Z,19.80
2022-09-06T08:59:21.014Z,20.00
2022-09-06T09:04:23.670Z,20.00
2022-09-06T09:09:23.355Z,20.10
2022-09-06T09:14:26.096Z,20.10
2022-09-06T09:19:24.317Z,20.20
2022-09-06T09:24:24.964Z,20.30
2022-09-06T09:29:28.066Z,20.40
2022-09-06T09:34:33.702Z,20.50
2022-09-06T09:39:39.154Z,20.60
2022-09-06T09:44:43.025Z,20.80
2022-09-06T09:49:41.212Z,20.90
2022-09-06T09:54:43.610Z,21.10
2022-09-06T09:59:45.644Z,21.20
2022-09-06T10:04:47.781Z,21.30
2022-09-06T10:09:49.007Z,21.40
2022-09-06T10:14:49.659Z,21.50
2022-09-06T10:19:48.818Z,21.70
2022-09-06T10:25:11.711Z,21.90
2022-09-06T10:30:11.337Z,22.20
2022-09-06T10:35:21.059Z,22.40
2022-09-06T10:40:31.571Z,22.70
2022-09-06T10:45:44.065Z,22.90
2022-09-06T10:50:48.960Z,23.10
2022-09-06T10:55:53.729Z,23.20
2022-09-06T11:00:54.167Z,23.40
2022-09-06T11:05:54.454Z,23.50
2022-09-06T11:10:56.493Z,23.50
2022-09-06T11:15:58.845Z,23.50
2022-09-06T11:21:18.806Z,23.60
2022-09-06T11:26:34.454Z,23.60
2022-09-06T11:36:56.065Z,23.80
2022-09-06T11:41:55.568Z,23.90
2022-09-06T11:47:07.535Z,24.00
2022-09-06T11:52:39.519Z,24.00
2022-09-06T11:57:40.456Z,24.10
2022-09-06T12:02:40.859Z,24.10
2022-09-06T12:07:40.727Z,24.00
2022-09-06T12:12:48.376Z,24.10
2022-09-06T12:17:49.889Z,24.10
2022-09-06T12:22:57.297Z,23.90
2022-09-06T12:27:58.837Z,23.80
2022-09-06T12:32:57.419Z,23.80
2022-09-06T12:37:57.472Z,23.70
2022-09-06T12:42:57.792Z,23.70
2022-09-06T12:48:08.558Z,23.60
2022-09-06T12:53:23.421Z,23.60
2022-09-06T12:58:29.377Z,23.50
2022-09-06T13:03:32.338Z,23.50
2022-09-06T13:08:35.619Z,23.40
2022-09-06T13:13:35.253Z,23.30
2022-09-06T13:18:35.524Z,23.20
2022-09-06T13:23:42.760Z,23.10
2022-09-06T13:28:42.591Z,23.10
2022-09-06T13:33:42.459Z,23.00
2022-09-06T13:38:42.300Z,23.00
2022-09-06T13:43:46.243Z,22.90
2022-09-06T13:48:45.118Z,22.90
2022-09-06T13:53:43.701Z,22.80
2022-09-06T13:58:42.060Z,22.70
2022-09-06T14:03:43.127Z,22.80
2022-09-06T14:09:05.985Z,22.70
2022-09-06T14:14:00.022Z,22.70
2022-09-06T14:18:59.850Z,22.70
2022-09-06T14:24:03.354Z,22.70
2022-09-06T14:29:02.775Z,22.70
2022-09-06T14:34:04.101Z,22.70
2022-09-06T14:39:04.964Z,22.70
2022-09-06T14:44:03.998Z,22.70
2022-09-06T14:49:06.111Z,22.60
2022-09-06T14:54:06.822Z,22.70
2022-09-06T14:59:05.324Z,22.60
2022-09-06T15:04:06.270Z,22.60
2022-09-06T15:09:05.392Z,22.60
2022-09-06T15:14:04.630Z,22.70
2022-09-06T15:19:04.657Z,22.70
2022-09-06T15:24:03.319Z,22.70
2022-09-06T15:29:01.994Z,22.70
2022-09-06T15:34:01.541Z,22.70
2022-09-06T15:39:03.267Z,22.70
2022-09-06T15:44:03.580Z,22.70
2022-09-06T15:49:04.059Z,22.60
2022-09-06T15:54:04.357Z,22.60
2022-09-06T15:59:02.657Z,22.60
2022-09-06T16:04:03.757Z,22.60
2022-09-06T16:09:06.039Z,22.60
2022-09-06T16:14:05.034Z,22.60
2022-09-06T16:19:03.533Z,22.60
2022-09-06T16:24:05.583Z,22.60
2022-09-06T16:29:06.022Z,22.60
2022-09-06T16:34:04.452Z,22.60
2022-09-06T16:39:04.828Z,22.50
2022-09-06T16:44:03.688Z,22.40
2022-09-06T16:49:04.348Z,22.40
2022-09-06T16:54:04.523Z,22.30
2022-09-06T16:59:05.636Z,22.30
2022-09-06T17:04:05.546Z,22.20
2022-09-06T17:09:05.815Z,22.10
2022-09-06T17:14:04.577Z,22.00
2022-09-06T17:19:03.179Z,22.00
2022-09-06T17:24:05.425Z,21.90
2022-09-06T17:29:05.403Z,21.80
2022-09-06T17:34:03.867Z,21.70
2022-09-06T17:39:03.698Z,21.60
2022-09-06T17:44:02.180Z,21.60
2022-09-06T17:49:01.919Z,21.50
2022-09-06T17:54:00.298Z,21.50
2022-09-06T17:59:00.440Z,21.40
2022-09-06T18:03:59.326Z,21.30
2022-09-06T18:09:00.996Z,21.30
2022-09-06T18:14:01.136Z,21.20
2022-09-06T18:19:01.102Z,21.10
2022-09-06T18:24:00.756Z,21.00
2022-09-06T18:28:59.169Z,20.90
2022-09-06T18:33:58.953Z,20.90
2022-09-06T18:38:57.469Z,20.80
2022-09-06T18:44:00.482Z,20.70
2022-09-06T18:48:58.932Z,20.70
2022-09-06T18:53:59.272Z,20.60
2022-09-06T18:59:00.960Z,20.50
2022-09-06T19:03:59.866Z,20.40
2022-09-06T19:09:00.125Z,20.40
2022-09-06T19:14:00.413Z,20.40
2022-09-06T19:19:03.381Z,20.30
2022-09-06T19:24:03.942Z,20.30
2022-09-06T19:29:06.435Z,20.20
2022-09-06T19:34:05.293Z,20.10
2022-09-06T19:39:07.347Z,20.10
2022-09-06T19:44:08.989Z,20.10
2022-09-06T19:49:08.910Z,20.00
2022-09-06T19:54:07.538Z,20.00
2022-09-06T19:59:10.235Z,20.00
2022-09-06T20:04:11.693Z,20.00
2022-09-06T20:09:11.185Z,19.90
2022-09-06T20:14:11.702Z,19.80
2022-09-06T20:19:10.085Z,19.90
2022-09-06T20:24:08.574Z,19.80
2022-09-06T20:29:07.220Z,19.80
2022-09-06T20:34:07.807Z,19.70
2022-09-06T20:39:06.154Z,19.70
2022-09-06T20:44:04.802Z,19.70
2022-09-06T20:49:04.725Z,19.70
2022-09-06T20:54:06.244Z,19.60
2022-09-06T20:59:05.860Z,19.60
2022-09-06T21:04:05.867Z,19.50
2022-09-06T21:09:06.730Z,19.50
2022-09-06T21:14:05.829Z,19.50
2022-09-06T21:19:06.828Z,19.50
2022-09-06T21:24:08.099Z,19.40
2022-09-06T21:29:06.577Z,19.40
2022-09-06T21:34:07.042Z,19.40
2022-09-06T21:39:09.505Z,19.30
2022-09-06T21:44:08.978Z,19.20
2022-09-06T21:49:09.613Z,19.20
2022-09-06T21:54:09.390Z,19.20
2022-09-06T21:59:07.894Z,19.10
2022-09-06T22:04:06.873Z,19.10
2022-09-06T22:09:11.519Z,19.10
2022-09-06T22:14:11.830Z,19.00
2022-09-06T22:19:10.775Z,19.00
2022-09-06T22:24:11.774Z,19.00
2022-09-06T22:29:12.267Z,19.00
2022-09-06T22:34:11.016Z,19.00
2022-09-06T22:39:10.960Z,19.00
2022-09-06T22:44:09.328Z,19.00
2022-09-06T22:49:08.271Z,18.90
2022-09-06T22:54:06.944Z,19.00
2022-09-06T22:59:07.055Z,19.00
2022-09-06T23:04:05.467Z,18.90
2022-09-06T23:09:04.963Z,18.80
2022-09-06T23:14:04.909Z,18.80
2022-09-06T23:19:04.697Z,18.80
2022-09-06T23:24:03.396Z,18.80
2022-09-06T23:29:01.787Z,18.80
2022-09-06T23:34:01.756Z,18.70
2022-09-06T23:39:02.358Z,18.70
2022-09-06T23:44:00.877Z,18.70
2022-09-06T23:48:59.210Z,18.70
2022-09-06T23:53:58.350Z,18.70
2022-09-06T23:58:58.055Z,18.70
